GENERAL EDWARD LAWRENCE LOGAN INTL

KBOS (BOS)
Boston, Massachusetts
Towered

Vatsim Metar:
KBOS 291354Z 22007KT 10SM SCT013 SCT120 21/17 A2996 RMK AO2 SLP145 T02110167

No ATC Online

Traffic

Inbound:
Ident
Type
Name
ETA
Phase
JBU1242
A320/L
Joe Vieira KBOS
15:06 Z
Descent
N299SB
B722/I
Dragoljub Blagojevic ESNU
16:32 Z
Climb
JBU204
A320/M-SDE3FGHIRWY/LB1
Shanard Letang KTPA
Boarding
DAL2320
H/B772/L
Thomas Jasperson KTPL
17:26 Z
Cruse

Outbound:
Ident
Type
Name
Destination
Phase